createdAt,value
2022-09-05T00:00:03.888Z,1.70
2022-09-05T00:02:33.817Z,1.65
2022-09-05T00:05:09.856Z,1.75
2022-09-05T00:08:04.346Z,1.70
2022-09-05T00:11:16.797Z,1.50
2022-09-05T00:13:40.003Z,1.88
2022-09-05T00:16:31.546Z,1.90
2022-09-05T00:24:18.693Z,1.85
2022-09-05T00:24:36.554Z,2.03
2022-09-05T00:25:44.872Z,1.52
2022-09-05T00:28:27.066Z,1.50
2022-09-05T00:31:55.020Z,1.90
2022-09-05T00:34:12.966Z,1.80
2022-09-05T00:36:51.193Z,1.83
2022-09-05T00:39:32.168Z,1.48
2022-09-05T00:42:00.921Z,1.45
2022-09-05T00:44:31.067Z,1.80
2022-09-05T00:47:10.610Z,1.75
2022-09-05T00:49:54.030Z,1.75
2022-09-05T00:52:36.884Z,1.70
2022-09-05T00:55:25.883Z,1.55
2022-09-05T00:58:00.558Z,1.50
2022-09-05T01:00:33.476Z,1.45
2022-09-05T01:03:25.956Z,1.42
2022-09-05T01:06:02.267Z,1.65
2022-09-05T01:09:07.564Z,1.58
2022-09-05T01:11:51.610Z,1.60
2022-09-05T01:14:49.229Z,1.58
2022-09-05T01:17:33.808Z,1.60
2022-09-05T01:20:18.632Z,1.38
2022-09-05T01:23:08.872Z,1.67
2022-09-05T01:25:54.889Z,1.70
2022-09-05T01:29:16.145Z,1.40
2022-09-05T01:32:10.613Z,1.50
2022-09-05T01:34:54.390Z,1.77
2022-09-05T01:37:40.266Z,1.50
2022-09-05T01:40:22.592Z,1.40
2022-09-05T01:43:14.273Z,1.60
2022-09-05T01:45:47.952Z,1.33
2022-09-05T01:49:15.775Z,1.60
2022-09-05T01:52:20.120Z,1.40
2022-09-05T01:54:51.489Z,1.42
2022-09-05T01:57:24.118Z,1.48
2022-09-05T02:00:09.101Z,1.23
2022-09-05T02:02:50.713Z,1.40
2022-09-05T02:05:54.938Z,1.35
2022-09-05T02:08:40.977Z,1.75
2022-09-05T02:11:10.024Z,1.20
2022-09-05T02:13:36.795Z,1.45
2022-09-05T02:16:17.702Z,1.45
2022-09-05T02:19:09.668Z,1.50
2022-09-05T02:22:11.811Z,1.40
2022-09-05T02:24:45.889Z,1.33
2022-09-05T02:27:35.849Z,1.30
2022-09-05T02:30:14.643Z,1.40
2022-09-05T02:33:12.733Z,1.48
2022-09-05T02:36:00.135Z,1.40
2022-09-05T02:41:55.610Z,1.30
2022-09-05T02:45:14.077Z,1.40
2022-09-05T02:45:17.102Z,1.70
2022-09-05T02:47:22.600Z,1.55
2022-09-05T02:53:46.949Z,1.30
2022-09-05T02:57:35.756Z,1.35
2022-09-05T02:58:04.997Z,1.30
2022-09-05T02:59:11.083Z,1.17
2022-09-05T03:01:58.145Z,1.40
2022-09-05T03:04:28.010Z,1.63
2022-09-05T03:07:00.371Z,1.50
2022-09-05T03:09:34.886Z,1.42
2022-09-05T03:12:29.347Z,1.23
2022-09-05T03:15:20.756Z,1.23
2022-09-05T03:18:21.133Z,1.30
2022-09-05T03:21:12.314Z,1.20
2022-09-05T03:24:00.685Z,1.33
2022-09-05T03:27:04.411Z,1.52
2022-09-05T03:29:58.310Z,1.35
2022-09-05T03:32:49.074Z,1.40
2022-09-05T03:35:49.559Z,1.48
2022-09-05T03:38:50.166Z,1.30
2022-09-05T03:41:49.309Z,1.30
2022-09-05T03:44:31.677Z,1.40
2022-09-05T03:47:14.444Z,1.10
2022-09-05T03:51:58.913Z,1.33
2022-09-05T03:57:11.708Z,1.52
2022-09-05T03:57:12.481Z,1.40
2022-09-05T03:59:47.518Z,1.30
2022-09-05T04:08:08.564Z,1.20
2022-09-05T04:08:18.449Z,1.40
2022-09-05T04:08:41.934Z,1.35
2022-09-05T04:11:16.470Z,1.30
2022-09-05T04:13:51.104Z,1.23
2022-09-05T04:16:22.565Z,1.20
2022-09-05T04:19:06.139Z,1.30
2022-09-05T04:21:35.234Z,1.20
2022-09-05T04:24:12.801Z,1.30
2022-09-05T04:26:46.066Z,1.30
2022-09-05T04:29:37.850Z,1.30
2022-09-05T04:32:19.193Z,1.35
2022-09-05T04:35:07.770Z,1.10
2022-09-05T04:37:47.823Z,1.20
2022-09-05T04:40:40.340Z,1.00
2022-09-05T04:43:18.436Z,1.40
2022-09-05T04:46:15.757Z,1.65
2022-09-05T04:49:07.465Z,1.52
2022-09-05T04:52:00.380Z,1.38
2022-09-05T04:54:46.406Z,1.55
2022-09-05T04:57:23.374Z,1.42
2022-09-05T05:05:44.995Z,1.35
2022-09-05T05:06:09.962Z,1.50
2022-09-05T05:06:15.297Z,1.30
2022-09-05T05:08:42.763Z,1.40
2022-09-05T05:17:55.746Z,1.23
2022-09-05T05:18:01.445Z,1.48
2022-09-05T05:18:09.768Z,1.20
2022-09-05T05:20:52.926Z,1.50
2022-09-05T05:23:28.471Z,1.50
2022-09-05T05:25:57.221Z,1.45
2022-09-05T05:28:48.805Z,1.55
2022-09-05T05:31:23.772Z,1.80
2022-09-05T05:33:51.162Z,1.92
2022-09-05T05:36:26.266Z,3.33
2022-09-05T05:39:00.893Z,3.30
2022-09-05T05:41:44.340Z,2.75
2022-09-05T05:44:30.320Z,3.80
2022-09-05T05:47:28.257Z,3.20
2022-09-05T05:50:34.129Z,3.55
2022-09-05T05:53:41.054Z,3.95
2022-09-05T05:56:34.223Z,3.78
2022-09-05T05:59:13.043Z,3.67
2022-09-05T06:02:04.784Z,3.67
2022-09-05T06:04:44.928Z,3.45
2022-09-05T06:07:33.341Z,3.40
2022-09-05T06:14:55.913Z,3.50
2022-09-05T06:14:57.992Z,3.60
2022-09-05T06:16:39.018Z,3.78
2022-09-05T06:19:39.147Z,3.17
2022-09-05T06:22:23.019Z,3.40
2022-09-05T06:25:54.789Z,3.53
2022-09-05T06:28:54.266Z,3.42
2022-09-05T06:31:36.279Z,3.15
2022-09-05T06:34:37.047Z,2.60
2022-09-05T06:37:09.763Z,2.80
2022-09-05T06:39:55.070Z,3.08
2022-09-05T06:42:43.666Z,2.65
2022-09-05T06:45:37.683Z,3.00
2022-09-05T06:48:44.522Z,2.78
2022-09-05T06:52:28.793Z,3.78
2022-09-05T06:55:31.605Z,2.50
2022-09-05T06:58:13.828Z,2.60
2022-09-05T07:00:53.631Z,3.15
2022-09-05T07:05:14.882Z,2.97
2022-09-05T07:07:23.007Z,2.70
2022-09-05T07:09:59.542Z,3.08
2022-09-05T07:12:45.131Z,2.63
2022-09-05T07:15:46.757Z,2.95
2022-09-05T07:18:31.714Z,3.33
2022-09-05T07:21:16.317Z,3.22
2022-09-05T07:24:06.859Z,3.00
2022-09-05T07:26:53.530Z,3.15
2022-09-05T07:29:29.754Z,2.47
2022-09-05T07:31:56.927Z,2.53
2022-09-05T07:34:31.439Z,2.85
2022-09-05T07:37:14.947Z,2.85
2022-09-05T07:39:46.661Z,2.92
2022-09-05T07:42:16.945Z,4.13
2022-09-05T07:44:59.352Z,3.20
2022-09-05T07:47:33.863Z,3.58
2022-09-05T07:52:14.062Z,3.72
2022-09-05T07:56:52.335Z,3.42
2022-09-05T07:57:10.788Z,2.80
2022-09-05T07:58:41.447Z,3.00
2022-09-05T08:01:12.646Z,3.17
2022-09-05T08:03:39.614Z,3.05
2022-09-05T08:06:08.782Z,3.22
2022-09-05T08:09:21.323Z,3.00
2022-09-05T08:11:48.304Z,3.00
2022-09-05T08:14:46.008Z,3.38
2022-09-05T08:17:16.602Z,3.30
2022-09-05T08:20:02.486Z,3.60
2022-09-05T08:22:52.559Z,3.40
2022-09-05T08:25:37.620Z,2.67
2022-09-05T08:28:35.371Z,2.70
2022-09-05T08:31:22.897Z,2.83
2022-09-05T08:33:50.566Z,3.20
2022-09-05T08:36:41.308Z,2.53
2022-09-05T08:39:08.179Z,2.67
2022-09-05T08:42:09.672Z,2.75
2022-09-05T08:46:46.105Z,2.67
2022-09-05T08:48:27.605Z,2.80
2022-09-05T08:50:59.840Z,2.60
2022-09-05T08:54:07.943Z,2.70
2022-09-05T08:56:52.349Z,2.72
2022-09-05T08:59:32.812Z,3.05
2022-09-05T09:02:46.221Z,3.08
2022-09-05T09:05:23.509Z,2.90
2022-09-05T09:08:08.932Z,2.83
2022-09-05T09:10:54.937Z,2.72
2022-09-05T09:13:27.559Z,2.83
2022-09-05T09:16:05.224Z,2.90
2022-09-05T09:18:41.925Z,2.88
2022-09-05T09:21:46.973Z,2.45
2022-09-05T09:24:35.207Z,2.70
2022-09-05T09:27:06.598Z,3.08
2022-09-05T09:29:34.876Z,2.50
2022-09-05T09:32:21.599Z,2.53
2022-09-05T09:35:21.380Z,3.05
2022-09-05T09:38:10.832Z,3.42
2022-09-05T09:40:52.373Z,2.90
2022-09-05T09:43:34.038Z,3.17
2022-09-05T09:46:15.835Z,2.83
2022-09-05T09:49:03.906Z,2.80
2022-09-05T09:51:54.797Z,3.35
2022-09-05T09:54:47.424Z,3.00
2022-09-05T09:57:48.519Z,2.97
2022-09-05T10:00:24.037Z,3.28
2022-09-05T10:07:36.789Z,3.33
2022-09-05T10:10:53.339Z,2.90
2022-09-05T10:10:58.216Z,3.03
2022-09-05T10:12:04.059Z,3.08
2022-09-05T10:15:03.158Z,2.90
2022-09-05T10:18:07.119Z,2.70
2022-09-05T10:21:16.398Z,2.72
2022-09-05T10:24:07.160Z,2.70
2022-09-05T10:26:52.985Z,2.50
2022-09-05T10:29:37.442Z,2.42
2022-09-05T10:35:08.290Z,2.95
2022-09-05T10:35:37.685Z,2.60
2022-09-05T10:38:14.217Z,2.75
2022-09-05T10:41:08.127Z,2.70
2022-09-05T10:43:31.181Z,2.53
2022-09-05T10:45:58.110Z,2.40
2022-09-05T10:48:53.169Z,2.83
2022-09-05T10:51:37.749Z,2.72
2022-09-05T10:54:26.603Z,2.65
2022-09-05T10:57:22.006Z,2.58
2022-09-05T11:02:19.845Z,2.65
2022-09-05T11:03:01.283Z,3.00
2022-09-05T11:05:30.732Z,2.80
2022-09-05T11:08:06.633Z,2.47
2022-09-05T11:10:39.554Z,2.50
2022-09-05T11:13:10.755Z,2.55
2022-09-05T11:16:03.724Z,2.30
2022-09-05T11:18:55.040Z,2.70
2022-09-05T11:21:44.945Z,2.38
2022-09-05T11:24:31.938Z,2.20
2022-09-05T11:27:25.182Z,2.50
2022-09-05T11:29:56.103Z,2.60
2022-09-05T11:37:41.651Z,2.83
2022-09-05T11:39:45.574Z,2.50
2022-09-05T11:40:07.644Z,2.25
2022-09-05T11:41:24.829Z,2.55
2022-09-05T11:44:24.771Z,2.63
2022-09-05T11:47:26.546Z,2.30
2022-09-05T11:50:02.187Z,2.20
2022-09-05T11:53:06.725Z,2.42
2022-09-05T11:56:03.563Z,2.35
2022-09-05T11:58:49.657Z,2.47
2022-09-05T12:01:44.148Z,1.98
2022-09-05T12:04:34.091Z,2.55
2022-09-05T12:07:29.792Z,2.97
2022-09-05T12:10:46.774Z,3.10
2022-09-05T12:13:17.413Z,3.58
2022-09-05T12:15:53.431Z,3.60
2022-09-05T12:18:45.922Z,3.25
2022-09-05T12:21:28.842Z,3.28
2022-09-05T12:25:16.046Z,3.60
2022-09-05T12:27:38.042Z,3.67
2022-09-05T12:29:47.008Z,3.67
2022-09-05T12:34:06.482Z,3.47
2022-09-05T12:36:05.684Z,4.00
2022-09-05T12:40:54.115Z,3.90
2022-09-05T12:41:42.656Z,3.90
2022-09-05T12:44:42.031Z,3.90
2022-09-05T12:47:18.536Z,4.00
2022-09-05T12:50:14.951Z,4.53
2022-09-05T12:52:47.039Z,4.32
2022-09-05T12:55:32.611Z,4.10
2022-09-05T13:03:00.881Z,4.00
2022-09-05T13:03:01.530Z,3.97
2022-09-05T13:04:16.471Z,4.15
2022-09-05T13:06:40.201Z,3.55
2022-09-05T13:09:55.344Z,4.10
2022-09-05T13:14:52.981Z,4.35
2022-09-05T13:15:27.356Z,4.07
2022-09-05T13:17:59.278Z,3.85
2022-09-05T13:20:36.634Z,4.60
2022-09-05T13:23:26.940Z,4.60
2022-09-05T13:26:23.852Z,4.38
2022-09-05T13:29:10.189Z,4.13
2022-09-05T13:37:58.027Z,4.00
2022-09-05T13:38:08.281Z,4.10
2022-09-05T13:38:10.928Z,4.22
2022-09-05T13:40:38.863Z,4.10
2022-09-05T13:43:07.864Z,3.72
2022-09-05T13:45:39.012Z,3.35
2022-09-05T13:51:37.239Z,3.85
2022-09-05T13:54:19.051Z,3.75
2022-09-05T13:57:05.682Z,4.10
2022-09-05T13:59:36.251Z,3.90
2022-09-05T14:02:30.086Z,3.65
2022-09-05T14:05:19.472Z,3.47
2022-09-05T14:07:56.196Z,3.50
2022-09-05T14:10:50.929Z,3.70
2022-09-05T14:13:20.897Z,3.60
2022-09-05T14:16:05.831Z,3.58
2022-09-05T14:19:02.254Z,3.67
2022-09-05T14:21:30.517Z,3.20
2022-09-05T14:24:16.900Z,3.22
2022-09-05T14:27:00.363Z,3.67
2022-09-05T14:29:36.452Z,3.42
2022-09-05T14:37:34.272Z,3.60
2022-09-05T14:37:40.298Z,3.25
2022-09-05T14:38:25.637Z,3.25
2022-09-05T14:41:11.260Z,3.03
2022-09-05T14:44:05.354Z,3.35
2022-09-05T14:46:38.731Z,3.22
2022-09-05T14:49:31.690Z,3.20
2022-09-05T14:51:58.748Z,3.20
2022-09-05T15:02:43.093Z,3.13
2022-09-05T15:02:44.339Z,3.25
2022-09-05T15:03:07.320Z,3.28
2022-09-05T15:05:45.858Z,2.90
2022-09-05T15:10:06.429Z,3.47
2022-09-05T15:12:17.769Z,3.08
2022-09-05T15:14:04.775Z,3.33
2022-09-05T15:16:33.008Z,2.92
2022-09-05T15:19:00.044Z,2.97
2022-09-05T15:21:38.287Z,2.97
2022-09-05T15:24:17.513Z,2.80
2022-09-05T15:26:58.213Z,2.95
2022-09-05T15:29:30.275Z,3.10
2022-09-05T15:32:24.781Z,3.03
2022-09-05T15:34:52.930Z,3.20
2022-09-05T15:37:37.019Z,2.95
2022-09-05T15:40:23.049Z,2.80
2022-09-05T15:42:59.105Z,2.65
2022-09-05T15:45:35.489Z,2.60
2022-09-05T15:48:09.427Z,2.67
2022-09-05T15:50:51.240Z,2.50
2022-09-05T15:53:34.382Z,2.75
2022-09-05T15:56:10.305Z,2.70
2022-09-05T15:58:56.858Z,2.58
2022-09-05T16:01:59.058Z,2.95
2022-09-05T16:07:05.572Z,2.50
2022-09-05T16:10:39.232Z,2.38
2022-09-05T16:10:40.247Z,2.53
2022-09-05T16:12:50.556Z,2.67
2022-09-05T16:18:03.113Z,2.63
2022-09-05T16:23:15.453Z,2.83
2022-09-05T16:23:23.592Z,3.05
2022-09-05T16:24:13.725Z,2.70
2022-09-05T16:26:42.139Z,2.50
2022-09-05T16:29:25.287Z,2.80
2022-09-05T16:32:02.297Z,2.40
2022-09-05T16:34:31.524Z,2.05
2022-09-05T16:37:21.220Z,1.85
2022-09-05T16:39:51.139Z,1.85
2022-09-05T16:42:32.484Z,1.92
2022-09-05T16:45:18.271Z,1.90
2022-09-05T16:47:57.121Z,2.22
2022-09-05T16:50:48.030Z,1.50
2022-09-05T16:53:46.179Z,1.50
2022-09-05T16:56:52.319Z,1.38
2022-09-05T16:59:28.419Z,1.90
2022-09-05T17:02:09.630Z,1.52
2022-09-05T17:05:03.998Z,1.63
2022-09-05T17:07:44.388Z,1.50
2022-09-05T17:10:15.746Z,1.60
2022-09-05T17:12:43.216Z,1.30
2022-09-05T17:15:18.301Z,1.60
2022-09-05T17:18:19.859Z,1.48
2022-09-05T17:20:46.807Z,1.42
2022-09-05T17:29:15.902Z,1.50
2022-09-05T17:29:30.254Z,1.60
2022-09-05T17:29:31.433Z,1.20
2022-09-05T17:31:58.932Z,1.75
2022-09-05T17:34:47.582Z,1.65
2022-09-05T17:37:34.655Z,1.65
2022-09-05T17:40:38.424Z,1.83
2022-09-05T17:43:28.488Z,1.58
2022-09-05T17:46:13.875Z,1.90
2022-09-05T17:48:57.318Z,1.85
2022-09-05T17:51:41.503Z,1.63
2022-09-05T17:54:30.766Z,1.60
2022-09-05T17:56:57.768Z,1.70
2022-09-05T17:59:28.937Z,1.60
2022-09-05T18:02:01.852Z,1.50
2022-09-05T18:04:45.101Z,1.60
2022-09-05T18:07:26.898Z,1.88
2022-09-05T18:15:40.251Z,1.60
2022-09-05T18:18:24.280Z,1.58
2022-09-05T18:23:54.420Z,1.75
2022-09-05T18:26:25.791Z,1.85
2022-09-05T18:29:02.802Z,1.80
2022-09-05T18:31:40.925Z,2.08
2022-09-05T18:34:20.786Z,1.83
2022-09-05T18:36:48.796Z,2.10
2022-09-05T18:39:29.386Z,2.00
2022-09-05T18:42:34.456Z,2.00
2022-09-05T18:45:14.502Z,2.17
2022-09-05T18:48:02.934Z,2.08
2022-09-05T18:50:32.171Z,2.22
2022-09-05T18:53:08.848Z,2.17
2022-09-05T18:56:12.808Z,1.85
2022-09-05T18:58:30.374Z,2.00
2022-09-05T19:01:28.298Z,1.92
2022-09-05T19:03:59.034Z,2.08
2022-09-05T19:06:36.307Z,2.28
2022-09-05T19:09:09.358Z,2.08
2022-09-05T19:11:53.290Z,2.08
2022-09-05T19:14:34.406Z,2.22
2022-09-05T19:17:07.674Z,2.30
2022-09-05T19:20:32.100Z,2.08
2022-09-05T19:23:13.087Z,1.98
2022-09-05T19:25:43.848Z,2.13
2022-09-05T19:36:49.257Z,2.00
2022-09-05T19:36:51.851Z,2.25
2022-09-05T19:37:24.369Z,2.20
2022-09-05T19:44:39.053Z,2.03
2022-09-05T19:47:26.131Z,2.10
2022-09-05T19:47:56.206Z,2.17
2022-09-05T19:48:18.463Z,2.20
2022-09-05T19:50:47.162Z,2.00
2022-09-05T19:53:15.652Z,1.77
2022-09-05T19:55:42.506Z,2.20
2022-09-05T19:58:19.742Z,1.92
2022-09-05T20:01:01.292Z,1.90
2022-09-05T20:03:38.168Z,1.80
2022-09-05T20:06:29.042Z,2.00
2022-09-05T20:09:14.580Z,1.90
2022-09-05T20:11:46.579Z,2.42
2022-09-05T20:14:29.342Z,2.28
2022-09-05T20:17:21.301Z,2.10
2022-09-05T20:19:48.158Z,1.75
2022-09-05T20:22:47.380Z,2.17
2022-09-05T20:25:19.714Z,1.88
2022-09-05T20:28:09.999Z,2.15
2022-09-05T20:30:40.147Z,2.17
2022-09-05T20:33:16.733Z,2.13
2022-09-05T20:40:16.622Z,2.20
2022-09-05T20:43:19.745Z,2.00
2022-09-05T20:43:26.922Z,1.70
2022-09-05T20:44:39.708Z,1.80
2022-09-05T20:51:27.922Z,2.10
2022-09-05T20:54:15.236Z,1.85
2022-09-05T20:54:16.438Z,1.80
2022-09-05T20:56:04.832Z,1.95
2022-09-05T20:58:32.517Z,2.20
2022-09-05T21:01:21.617Z,2.25
2022-09-05T21:04:07.801Z,2.17
2022-09-05T21:06:35.881Z,1.88
2022-09-05T21:09:12.901Z,1.83
2022-09-05T21:11:39.659Z,2.35
2022-09-05T21:14:06.440Z,1.92
2022-09-05T21:16:49.222Z,1.98
2022-09-05T21:19:28.832Z,2.20
2022-09-05T21:22:09.869Z,2.33
2022-09-05T21:24:36.639Z,2.00
2022-09-05T21:27:17.421Z,1.98
2022-09-05T21:29:44.440Z,1.98
2022-09-05T21:32:14.506Z,1.80
2022-09-05T21:34:45.056Z,2.00
2022-09-05T21:37:16.111Z,1.95
2022-09-05T21:39:59.753Z,1.70
2022-09-05T21:45:43.402Z,1.85
2022-09-05T21:47:44.485Z,1.48
2022-09-05T21:48:10.553Z,1.80
2022-09-05T21:50:49.606Z,1.92
2022-09-05T21:57:00.435Z,1.83
2022-09-05T21:59:17.641Z,2.15
2022-09-05T22:02:07.240Z,1.80
2022-09-05T22:04:41.270Z,1.80
2022-09-05T22:07:08.932Z,1.90
2022-09-05T22:09:35.736Z,1.70
2022-09-05T22:12:06.212Z,1.83
2022-09-05T22:14:49.422Z,1.75
2022-09-05T22:17:18.276Z,1.70
2022-09-05T22:19:45.837Z,2.03
2022-09-05T22:22:17.323Z,1.70
2022-09-05T22:24:59.426Z,1.50
2022-09-05T22:27:26.524Z,1.70
2022-09-05T22:29:53.425Z,1.80
2022-09-05T22:32:32.311Z,1.90
2022-09-05T22:35:26.974Z,1.60
2022-09-05T22:37:59.734Z,1.90
2022-09-05T22:40:28.598Z,1.77
2022-09-05T22:42:59.719Z,1.90
2022-09-05T22:45:26.792Z,2.03
2022-09-05T22:47:53.830Z,1.80
2022-09-05T22:50:20.675Z,1.63
2022-09-05T22:52:47.437Z,1.70
2022-09-05T22:55:14.211Z,2.00
2022-09-05T22:57:42.228Z,1.75
2022-09-05T23:00:09.745Z,1.73
2022-09-05T23:02:36.497Z,1.70
2022-09-05T23:05:04.349Z,1.60
2022-09-05T23:07:32.300Z,2.08
2022-09-05T23:09:59.348Z,2.17
2022-09-05T23:12:26.149Z,1.88
2022-09-05T23:14:52.954Z,1.88
2022-09-05T23:17:19.714Z,1.75
2022-09-05T23:19:46.477Z,1.73
2022-09-05T23:22:13.225Z,1.73
2022-09-05T23:24:39.980Z,1.70
2022-09-05T23:27:06.732Z,1.63
2022-09-05T23:29:33.584Z,1.50
2022-09-05T23:32:00.350Z,1.77
2022-09-05T23:34:27.172Z,1.90
2022-09-05T23:36:53.931Z,1.90
2022-09-05T23:39:20.685Z,1.77
2022-09-05T23:41:47.515Z,1.60
2022-09-05T23:44:14.342Z,1.85
2022-09-05T23:46:41.219Z,1.83
2022-09-05T23:49:08.050Z,1.77
2022-09-05T23:51:34.853Z,1.77
2022-09-05T23:54:01.614Z,1.98
2022-09-05T23:56:28.383Z,1.67
2022-09-05T23:58:55.142Z,1.98
